createdAt,value
2018-05-16T00:02:18.731Z,98.70
2018-05-16T00:04:47.029Z,98.90
2018-05-16T00:07:15.326Z,99.00
2018-05-16T00:09:44.435Z,99.00
2018-05-16T00:12:13.489Z,98.90
2018-05-16T00:14:42.016Z,98.90
2018-05-16T00:17:10.330Z,99.20
2018-05-16T00:19:39.401Z,99.10
2018-05-16T00:22:07.742Z,99.10
2018-05-16T00:24:36.082Z,98.90
2018-05-16T00:27:04.417Z,99.00
2018-05-16T00:29:33.474Z,99.00
2018-05-16T00:32:01.805Z,99.00
2018-05-16T00:34:30.861Z,99.20
2018-05-16T00:36:59.166Z,99.20
2018-05-16T00:39:27.494Z,99.70
2018-05-16T00:41:56.564Z,99.80
2018-05-16T00:44:24.902Z,99.70
2018-05-16T00:46:54.345Z,99.90
2018-05-16T00:49:22.642Z,99.90
2018-05-16T00:51:50.941Z,99.90
2018-05-16T00:54:19.286Z,99.90
2018-05-16T00:56:47.585Z,99.90
2018-05-16T00:59:16.133Z,99.90
2018-05-16T01:01:44.437Z,99.90
2018-05-16T01:04:12.743Z,99.80
2018-05-16T01:06:41.850Z,99.90
2018-05-16T01:09:10.938Z,99.90
2018-05-16T01:11:40.046Z,99.90
2018-05-16T01:14:08.346Z,99.90
2018-05-16T01:16:37.452Z,99.90
2018-05-16T01:19:06.528Z,99.90
2018-05-16T01:21:34.841Z,99.90
2018-05-16T01:24:03.950Z,99.90
2018-05-16T01:26:33.012Z,99.90
2018-05-16T01:29:01.350Z,99.90
2018-05-16T01:31:30.458Z,99.90
2018-05-16T01:33:59.524Z,99.90
2018-05-16T01:36:28.050Z,99.90
2018-05-16T01:38:56.358Z,99.90
2018-05-16T01:41:25.431Z,99.90
2018-05-16T01:43:53.840Z,99.90
2018-05-16T01:46:22.949Z,99.90
2018-05-16T01:49:03.098Z,99.90
2018-05-16T01:51:31.405Z,99.90
2018-05-16T01:53:59.714Z,99.90
2018-05-16T01:56:29.105Z,99.90
2018-05-16T01:58:57.407Z,99.90
2018-05-16T02:01:25.705Z,99.90
2018-05-16T02:03:54.992Z,99.90
2018-05-16T02:06:23.298Z,99.90
2018-05-16T02:08:51.592Z,99.90
2018-05-16T02:11:20.689Z,99.90
2018-05-16T02:13:48.993Z,99.90
2018-05-16T02:16:18.299Z,99.90
2018-05-16T02:18:46.597Z,99.90
2018-05-16T02:21:15.666Z,99.90
2018-05-16T02:23:44.015Z,99.90
2018-05-16T02:26:12.318Z,99.90
2018-05-16T02:28:40.612Z,99.90
2018-05-16T02:31:08.962Z,99.90
2018-05-16T02:33:38.030Z,99.90
2018-05-16T02:36:06.366Z,99.90
2018-05-16T02:38:35.431Z,99.90
2018-05-16T02:41:03.779Z,99.90
2018-05-16T02:43:32.078Z,99.90
2018-05-16T02:46:00.417Z,99.90
2018-05-16T02:48:28.722Z,99.90
2018-05-16T02:50:57.022Z,99.90
2018-05-16T02:53:26.124Z,99.90
2018-05-16T02:55:55.189Z,99.90
2018-05-16T02:58:23.495Z,99.90
2018-05-16T03:00:51.833Z,99.90
2018-05-16T03:03:20.130Z,99.90
2018-05-16T03:05:49.443Z,99.90
2018-05-16T03:08:17.766Z,99.90
2018-05-16T03:10:46.076Z,99.70
2018-05-16T03:13:14.409Z,99.50
2018-05-16T03:15:42.710Z,99.40
2018-05-16T03:18:11.041Z,99.50
2018-05-16T03:20:39.461Z,99.50
2018-05-16T03:23:08.646Z,99.80
2018-05-16T03:25:36.986Z,99.70
2018-05-16T03:28:05.277Z,99.60
2018-05-16T03:30:34.026Z,99.40
2018-05-16T03:33:03.838Z,99.20
2018-05-16T03:35:32.236Z,99.20
2018-05-16T03:38:00.574Z,99.00
2018-05-16T03:40:28.873Z,99.00
2018-05-16T03:42:57.213Z,98.90
2018-05-16T03:45:25.542Z,98.60
2018-05-16T03:47:53.843Z,98.40
2018-05-16T03:50:22.248Z,98.50
2018-05-16T03:52:50.663Z,98.60
2018-05-16T03:55:18.961Z,98.90
2018-05-16T04:00:59.008Z,99.30
2018-05-16T04:03:39.440Z,99.30
2018-05-16T04:06:07.837Z,99.00
2018-05-16T04:08:36.947Z,99.40
2018-05-16T04:11:05.274Z,99.20
2018-05-16T04:13:33.624Z,99.40
2018-05-16T04:16:02.313Z,99.00
2018-05-16T04:18:30.623Z,99.00
2018-05-16T04:20:58.992Z,98.60
2018-05-16T04:23:27.496Z,98.40
2018-05-16T04:25:55.796Z,98.00
2018-05-16T04:28:24.100Z,97.70
2018-05-16T04:30:53.202Z,97.80
2018-05-16T04:33:22.267Z,97.40
2018-05-16T04:35:50.574Z,97.40
2018-05-16T04:38:19.689Z,97.90
2018-05-16T04:40:47.986Z,97.90
2018-05-16T04:43:16.354Z,98.20
2018-05-16T04:45:44.861Z,98.40
2018-05-16T04:48:13.167Z,98.00
2018-05-16T04:50:41.465Z,98.00
2018-05-16T04:53:10.858Z,98.00
2018-05-16T04:55:39.155Z,98.00
2018-05-16T04:58:07.461Z,97.60
2018-05-16T05:00:36.649Z,97.60
2018-05-16T05:03:04.948Z,97.50
2018-05-16T05:05:33.627Z,97.40
2018-05-16T05:08:01.922Z,97.60
2018-05-16T05:10:30.221Z,97.30
2018-05-16T05:12:59.321Z,97.20
2018-05-16T05:15:27.626Z,97.20
2018-05-16T05:17:55.908Z,97.00
2018-05-16T05:20:25.014Z,97.10
2018-05-16T05:22:53.351Z,96.90
2018-05-16T05:25:21.686Z,97.30
2018-05-16T05:27:49.985Z,97.40
2018-05-16T05:30:19.104Z,97.60
2018-05-16T05:32:48.185Z,97.10
2018-05-16T05:35:16.900Z,97.10
2018-05-16T05:37:45.281Z,97.50
2018-05-16T05:40:13.577Z,97.30
2018-05-16T05:42:41.914Z,97.10
2018-05-16T05:45:10.981Z,96.30
2018-05-16T05:47:40.086Z,96.10
2018-05-16T05:50:09.177Z,95.90
2018-05-16T05:52:37.517Z,95.90
2018-05-16T05:55:06.192Z,96.40
2018-05-16T05:57:35.262Z,96.60
2018-05-16T06:00:03.680Z,96.60
2018-05-16T06:02:32.170Z,96.20
2018-05-16T06:05:01.278Z,96.50
2018-05-16T06:07:30.338Z,95.70
2018-05-16T06:09:58.677Z,95.70
2018-05-16T06:12:27.746Z,95.80
2018-05-16T06:14:56.068Z,95.60
2018-05-16T06:17:24.542Z,95.70
2018-05-16T06:19:52.935Z,94.70
2018-05-16T06:22:21.200Z,95.50
2018-05-16T06:24:49.533Z,94.70
2018-05-16T06:27:17.854Z,95.10
2018-05-16T06:29:46.934Z,94.60
2018-05-16T06:32:15.293Z,94.60
2018-05-16T06:34:43.627Z,93.40
2018-05-16T06:37:12.686Z,93.80
2018-05-16T06:39:41.013Z,93.70
2018-05-16T06:42:10.073Z,92.40
2018-05-16T06:44:38.710Z,92.40
2018-05-16T06:47:08.537Z,92.30
2018-05-16T06:49:36.834Z,92.30
2018-05-16T06:52:05.188Z,93.10
2018-05-16T06:54:33.510Z,93.40
2018-05-16T06:57:01.806Z,93.40
2018-05-16T06:59:30.902Z,93.10
2018-05-16T07:01:59.294Z,93.00
2018-05-16T07:04:29.093Z,93.40
2018-05-16T07:06:57.421Z,93.40
2018-05-16T07:09:26.526Z,93.70
2018-05-16T07:11:54.822Z,93.70
2018-05-16T07:14:23.917Z,93.70
2018-05-16T07:16:53.759Z,93.50
2018-05-16T07:19:22.850Z,93.30
2018-05-16T07:21:51.183Z,93.30
2018-05-16T07:24:19.513Z,92.20
2018-05-16T07:26:47.814Z,92.40
2018-05-16T07:29:16.149Z,92.40
2018-05-16T07:31:44.449Z,92.60
2018-05-16T07:34:12.781Z,92.50
2018-05-16T07:36:41.276Z,90.90
2018-05-16T07:39:09.574Z,91.10
2018-05-16T07:41:37.873Z,91.00
2018-05-16T07:44:06.964Z,90.20
2018-05-16T07:46:35.258Z,90.20
2018-05-16T07:49:04.369Z,88.00
2018-05-16T07:51:32.662Z,88.00
2018-05-16T07:54:00.997Z,88.30
2018-05-16T07:56:29.318Z,89.10
2018-05-16T07:58:57.614Z,87.40
2018-05-16T08:01:25.953Z,90.10
2018-05-16T08:03:54.255Z,88.90
2018-05-16T08:06:22.595Z,88.40
2018-05-16T08:08:52.432Z,88.20
2018-05-16T08:11:21.505Z,88.70
2018-05-16T08:13:49.797Z,88.60
2018-05-16T08:16:18.129Z,86.00
2018-05-16T08:18:47.196Z,88.60
2018-05-16T08:21:15.528Z,88.60
2018-05-16T08:23:44.587Z,88.30
2018-05-16T08:26:12.914Z,88.30
2018-05-16T08:28:42.347Z,83.90
2018-05-16T08:31:10.741Z,83.80
2018-05-16T08:33:38.997Z,84.30
2018-05-16T08:36:07.297Z,80.20
2018-05-16T08:38:36.398Z,80.90
2018-05-16T08:41:04.739Z,80.80
2018-05-16T08:43:33.271Z,82.80
2018-05-16T08:46:01.585Z,81.30
2018-05-16T08:48:30.645Z,80.90
2018-05-16T08:50:59.170Z,80.80
2018-05-16T08:53:27.461Z,79.40
2018-05-16T08:55:55.754Z,77.60
2018-05-16T08:58:24.081Z,79.70
2018-05-16T09:00:52.429Z,78.50
2018-05-16T09:03:20.744Z,74.70
2018-05-16T09:05:50.760Z,77.40
2018-05-16T09:08:19.853Z,73.80
2018-05-16T09:10:48.341Z,74.20
2018-05-16T09:13:16.641Z,75.50
2018-05-16T09:15:44.928Z,75.00
2018-05-16T09:18:14.760Z,75.30
2018-05-16T09:20:43.059Z,75.30
2018-05-16T09:23:12.154Z,74.70
2018-05-16T09:25:40.470Z,74.70
2018-05-16T09:28:09.634Z,74.60
2018-05-16T09:30:37.958Z,74.60
2018-05-16T09:33:07.067Z,76.00
2018-05-16T09:35:36.255Z,76.90
2018-05-16T09:38:04.734Z,76.90
2018-05-16T09:40:33.029Z,72.60
2018-05-16T09:43:01.326Z,73.80
2018-05-16T09:45:31.160Z,73.70
2018-05-16T09:47:59.460Z,73.60
2018-05-16T09:50:27.794Z,72.50
2018-05-16T09:52:56.121Z,73.50
2018-05-16T09:55:25.202Z,73.10
2018-05-16T09:57:53.530Z,74.60
2018-05-16T10:00:27.607Z,72.50
2018-05-16T10:02:55.930Z,72.00
2018-05-16T10:05:24.218Z,73.60
2018-05-16T10:07:52.546Z,72.10
2018-05-16T10:10:21.633Z,68.90
2018-05-16T10:12:49.918Z,68.90
2018-05-16T10:15:18.204Z,69.10
2018-05-16T10:17:46.698Z,67.10
2018-05-16T10:20:15.032Z,66.00
2018-05-16T10:22:43.279Z,67.80
2018-05-16T10:25:11.656Z,67.50
2018-05-16T10:27:39.977Z,67.60
2018-05-16T10:30:09.037Z,66.80
2018-05-16T10:32:37.355Z,66.80
2018-05-16T10:35:05.677Z,65.60
2018-05-16T10:37:34.753Z,66.00
2018-05-16T10:40:03.441Z,66.00
2018-05-16T10:42:31.734Z,66.10
2018-05-16T10:45:00.120Z,66.80
2018-05-16T10:47:28.527Z,66.70
2018-05-16T10:49:56.849Z,65.30
2018-05-16T10:52:25.177Z,64.60
2018-05-16T10:54:53.457Z,65.50
2018-05-16T10:57:21.821Z,66.70
2018-05-16T10:59:50.085Z,64.20
2018-05-16T11:02:18.765Z,66.40
2018-05-16T11:04:47.349Z,66.40
2018-05-16T11:07:15.655Z,67.50
2018-05-16T11:09:43.972Z,67.40
2018-05-16T11:12:13.057Z,68.50
2018-05-16T11:14:41.382Z,68.30
2018-05-16T11:17:09.929Z,67.50
2018-05-16T11:19:38.218Z,66.90
2018-05-16T11:22:06.505Z,67.10
2018-05-16T11:24:34.901Z,64.60
2018-05-16T11:27:03.397Z,64.40
2018-05-16T11:29:31.762Z,64.70
2018-05-16T11:32:00.087Z,64.70
2018-05-16T11:34:28.405Z,63.90
2018-05-16T11:36:56.689Z,64.80
2018-05-16T11:39:25.742Z,61.70
2018-05-16T11:41:54.058Z,61.70
2018-05-16T11:44:22.348Z,61.40
2018-05-16T11:46:50.670Z,58.90
2018-05-16T11:49:19.946Z,60.10
2018-05-16T11:51:48.229Z,60.10
2018-05-16T11:54:16.526Z,60.30
2018-05-16T11:56:44.851Z,61.10
2018-05-16T11:59:13.986Z,61.00
2018-05-16T12:01:42.290Z,60.80
2018-05-16T12:04:10.536Z,60.50
2018-05-16T12:06:39.453Z,58.20
2018-05-16T12:09:08.396Z,59.70
2018-05-16T12:11:36.725Z,59.60
2018-05-16T12:14:05.819Z,56.80
2018-05-16T12:16:34.106Z,56.80
2018-05-16T12:19:02.425Z,56.00
2018-05-16T12:21:30.714Z,57.70
2018-05-16T12:23:58.997Z,58.00
2018-05-16T12:26:28.082Z,57.30
2018-05-16T12:28:56.515Z,57.30
2018-05-16T12:31:24.716Z,58.60
2018-05-16T12:33:53.043Z,57.10
2018-05-16T12:36:21.326Z,55.10
2018-05-16T12:38:49.654Z,54.50
2018-05-16T12:41:18.714Z,55.30
2018-05-16T12:43:47.002Z,55.30
2018-05-16T12:46:15.318Z,54.10
2018-05-16T12:48:43.633Z,54.20
2018-05-16T12:51:11.928Z,55.30
2018-05-16T12:53:40.250Z,56.40
2018-05-16T12:56:08.543Z,56.30
2018-05-16T12:58:36.870Z,55.70
2018-05-16T13:01:06.054Z,55.10
2018-05-16T13:03:34.369Z,54.90
2018-05-16T13:06:03.451Z,57.30
2018-05-16T13:08:31.851Z,57.30
2018-05-16T13:11:00.170Z,56.20
2018-05-16T13:13:29.260Z,57.50
2018-05-16T13:15:57.637Z,57.50
2018-05-16T13:18:27.469Z,55.70
2018-05-16T13:20:55.748Z,55.70
2018-05-16T13:23:24.086Z,56.30
2018-05-16T13:25:52.368Z,56.20
2018-05-16T13:28:21.413Z,55.80
2018-05-16T13:30:50.137Z,55.70
2018-05-16T13:33:18.415Z,56.40
2018-05-16T13:35:46.706Z,55.40
2018-05-16T13:38:15.111Z,55.40
2018-05-16T13:40:43.434Z,55.40
2018-05-16T13:43:11.720Z,55.90
2018-05-16T13:45:40.776Z,56.00
2018-05-16T13:48:09.187Z,55.50
2018-05-16T13:50:37.477Z,52.40
2018-05-16T13:53:05.865Z,55.00
2018-05-16T13:55:34.357Z,54.30
2018-05-16T13:58:02.636Z,54.00
2018-05-16T14:00:30.917Z,54.50
2018-05-16T14:02:59.250Z,54.30
2018-05-16T14:05:28.437Z,54.00
2018-05-16T14:07:57.319Z,54.00
2018-05-16T14:10:25.605Z,53.40
2018-05-16T14:12:53.903Z,54.70
2018-05-16T14:15:22.242Z,54.70
2018-05-16T14:17:51.320Z,59.10
2018-05-16T14:20:19.714Z,59.10
2018-05-16T14:22:48.116Z,62.10
2018-05-16T14:25:18.841Z,66.20
2018-05-16T14:27:48.678Z,67.20
2018-05-16T14:30:16.965Z,67.10
2018-05-16T14:32:45.285Z,65.60
2018-05-16T14:35:14.331Z,66.60
2018-05-16T14:37:42.618Z,66.50
2018-05-16T14:40:10.932Z,59.80
2018-05-16T14:42:39.454Z,59.40
2018-05-16T14:45:07.693Z,61.10
2018-05-16T14:47:36.010Z,59.50
2018-05-16T14:50:04.347Z,60.70
2018-05-16T14:52:32.637Z,61.10
2018-05-16T14:55:00.948Z,61.70
2018-05-16T14:57:29.234Z,60.10
2018-05-16T14:59:57.549Z,60.50
2018-05-16T15:02:25.833Z,62.90
2018-05-16T15:04:54.149Z,62.70
2018-05-16T15:07:22.507Z,62.80
2018-05-16T15:09:51.502Z,62.80
2018-05-16T15:12:19.826Z,62.80
2018-05-16T15:14:48.215Z,61.90
2018-05-16T15:17:16.524Z,62.40
2018-05-16T15:19:45.582Z,63.30
2018-05-16T15:22:13.902Z,63.10
2018-05-16T15:24:42.221Z,61.60
2018-05-16T15:27:11.274Z,62.10
2018-05-16T15:29:39.553Z,62.10
2018-05-16T15:32:08.075Z,61.10
2018-05-16T15:34:36.369Z,61.70
2018-05-16T15:37:04.752Z,61.60
2018-05-16T15:39:33.078Z,61.50
2018-05-16T15:42:02.157Z,64.10
2018-05-16T15:44:30.471Z,64.20
2018-05-16T15:46:59.588Z,82.50
2018-05-16T15:49:28.644Z,82.30
2018-05-16T15:51:56.937Z,82.20
2018-05-16T15:54:25.277Z,91.00
2018-05-16T15:56:53.582Z,93.10
2018-05-16T15:59:21.874Z,94.00
2018-05-16T16:01:50.210Z,95.50
2018-05-16T16:04:20.053Z,94.80
2018-05-16T16:06:49.111Z,94.30
2018-05-16T16:09:17.441Z,94.20
2018-05-16T16:11:46.537Z,94.70
2018-05-16T16:14:14.849Z,94.50
2018-05-16T16:16:43.940Z,94.50
2018-05-16T16:19:12.237Z,94.50
2018-05-16T16:21:41.300Z,96.30
2018-05-16T16:24:09.625Z,96.20
2018-05-16T16:26:37.927Z,95.20
2018-05-16T16:29:07.245Z,95.50
2018-05-16T16:31:36.306Z,96.20
2018-05-16T16:34:05.368Z,95.10
2018-05-16T16:36:34.769Z,93.50
2018-05-16T16:39:03.144Z,93.40
2018-05-16T16:41:31.446Z,93.80
2018-05-16T16:43:59.778Z,93.50
2018-05-16T16:46:28.109Z,93.50
2018-05-16T16:48:56.404Z,95.20
2018-05-16T16:51:24.702Z,93.90
2018-05-16T16:53:53.200Z,94.70
2018-05-16T16:56:21.567Z,93.00
2018-05-16T16:58:49.904Z,93.90
2018-05-16T17:01:18.213Z,93.50
2018-05-16T17:03:47.250Z,93.10
2018-05-16T17:06:15.546Z,93.40
2018-05-16T17:08:43.840Z,94.20
2018-05-16T17:11:12.180Z,94.80
2018-05-16T17:13:40.478Z,95.50
2018-05-16T17:16:08.772Z,96.00
2018-05-16T17:18:37.104Z,95.90
2018-05-16T17:21:05.494Z,96.00
2018-05-16T17:23:33.789Z,96.50
2018-05-16T17:26:02.135Z,95.70
2018-05-16T17:28:30.774Z,95.80
2018-05-16T17:30:59.776Z,95.70
2018-05-16T17:33:28.148Z,95.30
2018-05-16T17:35:57.241Z,94.80
2018-05-16T17:38:25.969Z,94.80
2018-05-16T17:40:54.407Z,95.00
2018-05-16T17:43:22.721Z,95.20
2018-05-16T17:45:51.089Z,95.60
2018-05-16T17:48:19.384Z,96.10
2018-05-16T17:50:47.680Z,96.70
2018-05-16T17:53:16.015Z,96.70
2018-05-16T17:55:44.304Z,96.40
2018-05-16T17:58:12.600Z,96.50
2018-05-16T18:00:40.930Z,97.10
2018-05-16T18:03:09.278Z,96.60
2018-05-16T18:05:37.578Z,96.20
2018-05-16T18:08:06.834Z,94.40
2018-05-16T18:10:35.124Z,94.40
2018-05-16T18:16:26.182Z,94.40
2018-05-16T18:18:54.503Z,94.30
2018-05-16T18:21:22.840Z,94.50
2018-05-16T18:23:51.133Z,94.50
2018-05-16T18:26:19.466Z,94.60
2018-05-16T18:28:48.526Z,94.60
2018-05-16T18:31:17.086Z,94.50
2018-05-16T18:33:45.382Z,95.40
2018-05-16T18:36:14.470Z,96.30
2018-05-16T18:38:42.807Z,96.10
2018-05-16T18:41:11.135Z,96.30
2018-05-16T18:43:39.434Z,96.40
2018-05-16T18:46:07.734Z,96.10
2018-05-16T18:48:36.066Z,95.90
2018-05-16T18:51:04.418Z,96.30
2018-05-16T18:53:32.770Z,95.80
2018-05-16T18:56:01.205Z,95.70
2018-05-16T18:58:29.389Z,96.20
2018-05-16T19:00:57.708Z,96.70
2018-05-16T19:03:26.827Z,97.00
2018-05-16T19:05:55.905Z,96.00
2018-05-16T19:08:24.253Z,96.00
2018-05-16T19:10:52.556Z,97.10
2018-05-16T19:13:20.885Z,96.90
2018-05-16T19:15:49.973Z,96.40
2018-05-16T19:18:18.260Z,96.40
2018-05-16T19:20:46.564Z,96.60
2018-05-16T19:23:14.897Z,95.00
2018-05-16T19:25:43.233Z,94.90
2018-05-16T19:28:11.534Z,95.10
2018-05-16T19:30:40.773Z,94.90
2018-05-16T19:33:09.074Z,94.80
2018-05-16T19:35:37.375Z,95.20
2018-05-16T19:38:05.729Z,95.90
2018-05-16T19:40:34.880Z,95.40
2018-05-16T19:43:03.201Z,95.40
2018-05-16T19:45:31.534Z,94.90
2018-05-16T19:47:59.831Z,94.70
2018-05-16T19:50:28.129Z,94.70
2018-05-16T19:52:56.541Z,93.80
2018-05-16T19:55:24.825Z,93.50
2018-05-16T19:57:53.178Z,93.20
2018-05-16T20:00:21.472Z,92.70
2018-05-16T20:02:49.756Z,93.10
2018-05-16T20:05:18.413Z,94.50
2018-05-16T20:07:48.233Z,94.00
2018-05-16T20:10:16.546Z,94.00
2018-05-16T20:12:45.945Z,94.00
2018-05-16T20:15:14.245Z,93.90
2018-05-16T20:17:42.625Z,94.10
2018-05-16T20:20:11.018Z,93.90
2018-05-16T20:22:40.810Z,92.80
2018-05-16T20:25:09.103Z,92.80
2018-05-16T20:27:37.481Z,92.50
2018-05-16T20:30:05.817Z,92.60
2018-05-16T20:32:34.129Z,92.60
2018-05-16T20:35:03.202Z,92.10
2018-05-16T20:37:31.901Z,92.10
2018-05-16T20:40:00.268Z,91.70
2018-05-16T20:42:29.302Z,91.70
2018-05-16T20:44:57.620Z,91.70
2018-05-16T20:47:26.673Z,91.50
2018-05-16T20:49:55.194Z,91.50
2018-05-16T20:52:23.485Z,91.70
2018-05-16T20:54:51.778Z,91.20
2018-05-16T20:57:20.095Z,91.20
2018-05-16T20:59:49.177Z,90.20
2018-05-16T21:02:17.498Z,90.20
2018-05-16T21:04:45.817Z,90.30
2018-05-16T21:07:14.109Z,90.00
2018-05-16T21:09:42.408Z,90.40
2018-05-16T21:12:10.726Z,91.10
2018-05-16T21:14:39.064Z,91.90
2018-05-16T21:17:07.390Z,92.90
2018-05-16T21:19:36.298Z,93.00
2018-05-16T21:22:04.592Z,93.30
2018-05-16T21:24:33.659Z,92.90
2018-05-16T21:27:01.991Z,92.80
2018-05-16T21:29:30.317Z,93.00
2018-05-16T21:31:58.705Z,93.30
2018-05-16T21:34:26.997Z,93.60
2018-05-16T21:36:55.326Z,93.80
2018-05-16T21:39:23.626Z,93.70
2018-05-16T21:41:51.920Z,93.40
2018-05-16T21:44:20.237Z,93.10
2018-05-16T21:46:49.349Z,92.10
2018-05-16T21:49:18.406Z,92.50
2018-05-16T21:51:46.724Z,92.50
2018-05-16T21:54:15.018Z,92.50
2018-05-16T21:56:43.390Z,91.00
2018-05-16T21:59:12.713Z,91.30
2018-05-16T22:01:40.997Z,91.20
2018-05-16T22:04:09.281Z,92.50
2018-05-16T22:06:37.598Z,91.70
2018-05-16T22:09:06.690Z,92.20
2018-05-16T22:11:34.981Z,92.20
2018-05-16T22:14:04.786Z,92.10
2018-05-16T22:16:33.114Z,92.10
2018-05-16T22:19:02.170Z,93.20
2018-05-16T22:21:30.454Z,93.20
2018-05-16T22:23:58.774Z,93.60
2018-05-16T22:26:28.572Z,93.10
2018-05-16T22:28:56.866Z,93.10
2018-05-16T22:31:31.009Z,93.20
2018-05-16T22:34:04.934Z,94.10
2018-05-16T22:36:38.856Z,94.10
2018-05-16T22:39:12.994Z,94.30
2018-05-16T22:41:46.862Z,94.00
2018-05-16T22:44:20.781Z,94.30
2018-05-16T22:46:49.072Z,93.80
2018-05-16T22:49:17.625Z,93.80
2018-05-16T22:51:45.908Z,93.80
2018-05-16T22:54:14.207Z,93.80
2018-05-16T22:56:42.520Z,93.80
2018-05-16T22:59:10.841Z,93.70
2018-05-16T23:01:39.147Z,93.70
2018-05-16T23:04:07.658Z,94.20
2018-05-16T23:06:35.945Z,94.40
2018-05-16T23:09:04.239Z,94.70
2018-05-16T23:11:32.569Z,95.00
2018-05-16T23:14:00.917Z,95.30
2018-05-16T23:16:29.219Z,95.00
2018-05-16T23:18:58.318Z,95.30
2018-05-16T23:21:26.653Z,95.20
2018-05-16T23:23:54.953Z,94.30
2018-05-16T23:26:23.285Z,95.40
2018-05-16T23:28:51.622Z,95.40
2018-05-16T23:31:19.916Z,95.00
2018-05-16T23:33:48.260Z,94.90
2018-05-16T23:36:16.567Z,94.90
2018-05-16T23:38:45.634Z,95.40
2018-05-16T23:41:13.964Z,95.40
2018-05-16T23:43:43.030Z,95.40
2018-05-16T23:46:11.366Z,95.40
2018-05-16T23:48:40.654Z,95.10
2018-05-16T23:51:09.721Z,95.00
2018-05-16T23:53:38.016Z,95.00
2018-05-16T23:56:06.342Z,95.20
2018-05-16T23:58:35.745Z,95.40
